Saint Anthony, Canada
Current Conditions -  °F | °C
As of 2:00 PM on Friday 28 Nov 2014 (Local Time) from CYAY Reporting Station
Few Clouds Few Clouds  
Wind Chill: 13°   Ceiling: Unl
Heat Index: 23°   Visibility: 9mi
Dew Point: 16°   Wind: 9mph
Humidity: 74%   Direction: 340°NNW
Pressure: 29.88"   Gusts: NA
Location:  51.48°N, 55.81°W
Report Text: CYAY 281700Z AUTO 34008KT 9SM FEW042 M05/M09 A2988 RMK SLP120
Loading
Personal Weather Stations






























Interactive Weather Map New forecast layout! Learn more

10-Day Weather Forecast

Advertisements
Track Severe Weather on mobile